sensor_id;sensor_type;location;lat;lon;timestamp;P1;durP1;ratioP1;P2;durP2;ratioP2
23628;SDS011;11991;57.150;-2.134;2022-10-16T00:01:20;1.38;;;0.50;;
23628;SDS011;11991;57.150;-2.134;2022-10-16T00:03:49;0.68;;;0.50;;
23628;SDS011;11991;57.150;-2.134;2022-10-16T00:06:18;1.95;;;0.65;;
23628;SDS011;11991;57.150;-2.134;2022-10-16T00:08:47;2.08;;;0.82;;
23628;SDS011;11991;57.150;-2.134;2022-10-16T00:13:57;0.77;;;0.77;;
23628;SDS011;11991;57.150;-2.134;2022-10-16T00:16:25;1.17;;;0.98;;
23628;SDS011;11991;57.150;-2.134;2022-10-16T00:18:54;0.77;;;0.50;;
23628;SDS011;11991;57.150;-2.134;2022-10-16T00:21:22;0.40;;;0.40;;
23628;SDS011;11991;57.150;-2.134;2022-10-16T00:23:52;0.65;;;0.50;;
23628;SDS011;11991;57.150;-2.134;2022-10-16T00:26:21;0.40;;;0.40;;
23628;SDS011;11991;57.150;-2.134;2022-10-16T00:28:49;1.42;;;0.60;;
23628;SDS011;11991;57.150;-2.134;2022-10-16T00:31:18;1.25;;;0.70;;
23628;SDS011;11991;57.150;-2.134;2022-10-16T00:33:46;1.50;;;0.75;;
23628;SDS011;11991;57.150;-2.134;2022-10-16T00:36:15;0.52;;;0.40;;
23628;SDS011;11991;57.150;-2.134;2022-10-16T00:38:45;0.47;;;0.40;;
23628;SDS011;11991;57.150;-2.134;2022-10-16T00:41:14;0.90;;;0.80;;
23628;SDS011;11991;57.150;-2.134;2022-10-16T00:43:47;0.68;;;0.43;;
23628;SDS011;11991;57.150;-2.134;2022-10-16T00:46:20;1.65;;;0.65;;
23628;SDS011;11991;57.150;-2.134;2022-10-16T00:48:52;0.50;;;0.45;;
23628;SDS011;11991;57.150;-2.134;2022-10-16T00:51:35;0.50;;;0.50;;
23628;SDS011;11991;57.150;-2.134;2022-10-16T00:54:09;0.40;;;0.40;;
23628;SDS011;11991;57.150;-2.134;2022-10-16T00:56:43;1.27;;;0.50;;
23628;SDS011;11991;57.150;-2.134;2022-10-16T00:59:18;0.55;;;0.50;;
23628;SDS011;11991;57.150;-2.134;2022-10-16T01:01:49;0.40;;;0.40;;
23628;SDS011;11991;57.150;-2.134;2022-10-16T01:04:16;0.40;;;0.40;;
23628;SDS011;11991;57.150;-2.134;2022-10-16T01:17:48;0.75;;;0.40;;
23628;SDS011;11991;57.150;-2.134;2022-10-16T01:20:33;0.43;;;0.40;;
23628;SDS011;11991;57.150;-2.134;2022-10-16T01:31:17;0.63;;;0.40;;
23628;SDS011;11991;57.150;-2.134;2022-10-16T01:34:32;1.85;;;0.63;;
23628;SDS011;11991;57.150;-2.134;2022-10-16T01:36:51;0.40;;;0.40;;
23628;SDS011;11991;57.150;-2.134;2022-10-16T01:39:24;0.32;;;0.30;;
23628;SDS011;11991;57.150;-2.134;2022-10-16T01:41:58;0.30;;;0.30;;
23628;SDS011;11991;57.150;-2.134;2022-10-16T01:44:31;0.50;;;0.50;;
23628;SDS011;11991;57.150;-2.134;2022-10-16T01:46:59;0.73;;;0.55;;
23628;SDS011;11991;57.150;-2.134;2022-10-16T01:49:29;0.30;;;0.30;;
23628;SDS011;11991;57.150;-2.134;2022-10-16T01:52:02;0.60;;;0.52;;
23628;SDS011;11991;57.150;-2.134;2022-10-16T01:54:33;1.75;;;0.52;;
23628;SDS011;11991;57.150;-2.134;2022-10-16T01:57:04;0.40;;;0.40;;
23628;SDS011;11991;57.150;-2.134;2022-10-16T01:59:37;0.40;;;0.40;;
23628;SDS011;11991;57.150;-2.134;2022-10-16T02:02:09;0.32;;;0.30;;
23628;SDS011;11991;57.150;-2.134;2022-10-16T02:04:41;0.38;;;0.38;;
23628;SDS011;11991;57.150;-2.134;2022-10-16T02:07:11;1.65;;;0.80;;
23628;SDS011;11991;57.150;-2.134;2022-10-16T02:09:40;0.57;;;0.57;;
23628;SDS011;11991;57.150;-2.134;2022-10-16T02:12:15;0.50;;;0.50;;
23628;SDS011;11991;57.150;-2.134;2022-10-16T02:15:06;0.50;;;0.40;;
23628;SDS011;11991;57.150;-2.134;2022-10-16T02:17:34;0.50;;;0.50;;
23628;SDS011;11991;57.150;-2.134;2022-10-16T02:20:02;0.98;;;0.50;;
23628;SDS011;11991;57.150;-2.134;2022-10-16T02:22:35;0.40;;;0.40;;
23628;SDS011;11991;57.150;-2.134;2022-10-16T02:27:55;0.47;;;0.47;;
23628;SDS011;11991;57.150;-2.134;2022-10-16T02:33:06;0.50;;;0.40;;
23628;SDS011;11991;57.150;-2.134;2022-10-16T02:35:36;0.38;;;0.38;;
23628;SDS011;11991;57.150;-2.134;2022-10-16T02:38:05;0.35;;;0.35;;
23628;SDS011;11991;57.150;-2.134;2022-10-16T02:40:33;0.50;;;0.50;;
23628;SDS011;11991;57.150;-2.134;2022-10-16T02:43:02;1.17;;;0.45;;
23628;SDS011;11991;57.150;-2.134;2022-10-16T02:45:30;0.30;;;0.30;;
23628;SDS011;11991;57.150;-2.134;2022-10-16T02:47:58;0.30;;;0.30;;
23628;SDS011;11991;57.150;-2.134;2022-10-16T02:50:25;0.32;;;0.32;;
23628;SDS011;11991;57.150;-2.134;2022-10-16T02:52:52;0.93;;;0.38;;
23628;SDS011;11991;57.150;-2.134;2022-10-16T02:55:20;0.30;;;0.30;;
23628;SDS011;11991;57.150;-2.134;2022-10-16T02:57:47;0.40;;;0.40;;
23628;SDS011;11991;57.150;-2.134;2022-10-16T03:00:15;0.30;;;0.30;;
23628;SDS011;11991;57.150;-2.134;2022-10-16T03:02:43;0.60;;;0.30;;
23628;SDS011;11991;57.150;-2.134;2022-10-16T03:05:10;0.30;;;0.30;;
23628;SDS011;11991;57.150;-2.134;2022-10-16T03:07:38;0.20;;;0.20;;
23628;SDS011;11991;57.150;-2.134;2022-10-16T03:10:05;0.40;;;0.40;;
23628;SDS011;11991;57.150;-2.134;2022-10-16T03:12:33;0.30;;;0.30;;
23628;SDS011;11991;57.150;-2.134;2022-10-16T03:15:01;0.20;;;0.20;;
23628;SDS011;11991;57.150;-2.134;2022-10-16T03:17:28;0.20;;;0.20;;
23628;SDS011;11991;57.150;-2.134;2022-10-16T03:19:56;0.22;;;0.22;;
23628;SDS011;11991;57.150;-2.134;2022-10-16T03:22:23;0.28;;;0.28;;
23628;SDS011;11991;57.150;-2.134;2022-10-16T03:24:50;0.20;;;0.20;;
23628;SDS011;11991;57.150;-2.134;2022-10-16T03:27:17;0.20;;;0.20;;
23628;SDS011;11991;57.150;-2.134;2022-10-16T03:29:45;0.30;;;0.30;;
23628;SDS011;11991;57.150;-2.134;2022-10-16T03:32:12;0.20;;;0.20;;
23628;SDS011;11991;57.150;-2.134;2022-10-16T03:34:39;0.20;;;0.20;;
23628;SDS011;11991;57.150;-2.134;2022-10-16T03:37:06;0.30;;;0.30;;
23628;SDS011;11991;57.150;-2.134;2022-10-16T03:39:33;0.22;;;0.22;;
23628;SDS011;11991;57.150;-2.134;2022-10-16T03:42:00;0.25;;;0.25;;
23628;SDS011;11991;57.150;-2.134;2022-10-16T03:44:28;0.80;;;0.20;;
23628;SDS011;11991;57.150;-2.134;2022-10-16T03:46:55;0.20;;;0.20;;
23628;SDS011;11991;57.150;-2.134;2022-10-16T03:49:23;0.20;;;0.20;;
23628;SDS011;11991;57.150;-2.134;2022-10-16T03:51:50;0.20;;;0.20;;
23628;SDS011;11991;57.150;-2.134;2022-10-16T03:54:17;0.20;;;0.20;;
23628;SDS011;11991;57.150;-2.134;2022-10-16T03:56:45;0.20;;;0.20;;
23628;SDS011;11991;57.150;-2.134;2022-10-16T03:59:12;0.22;;;0.22;;
23628;SDS011;11991;57.150;-2.134;2022-10-16T04:01:39;0.20;;;0.20;;
23628;SDS011;11991;57.150;-2.134;2022-10-16T04:04:07;0.20;;;0.20;;
23628;SDS011;11991;57.150;-2.134;2022-10-16T04:06:34;0.20;;;0.20;;
23628;SDS011;11991;57.150;-2.134;2022-10-16T04:09:01;0.20;;;0.20;;
23628;SDS011;11991;57.150;-2.134;2022-10-16T04:11:29;0.20;;;0.20;;
23628;SDS011;11991;57.150;-2.134;2022-10-16T04:13:56;0.20;;;0.20;;
23628;SDS011;11991;57.150;-2.134;2022-10-16T04:16:23;0.30;;;0.30;;
23628;SDS011;11991;57.150;-2.134;2022-10-16T04:18:50;0.20;;;0.20;;
23628;SDS011;11991;57.150;-2.134;2022-10-16T04:21:18;0.30;;;0.30;;
23628;SDS011;11991;57.150;-2.134;2022-10-16T04:23:45;0.20;;;0.20;;
23628;SDS011;11991;57.150;-2.134;2022-10-16T04:26:12;0.20;;;0.20;;
23628;SDS011;11991;57.150;-2.134;2022-10-16T04:28:39;0.20;;;0.20;;
23628;SDS011;11991;57.150;-2.134;2022-10-16T04:31:07;0.20;;;0.20;;
23628;SDS011;11991;57.150;-2.134;2022-10-16T04:33:34;0.30;;;0.30;;
23628;SDS011;11991;57.150;-2.134;2022-10-16T04:36:02;0.28;;;0.28;;
23628;SDS011;11991;57.150;-2.134;2022-10-16T04:38:30;0.20;;;0.20;;
23628;SDS011;11991;57.150;-2.134;2022-10-16T04:40:58;0.47;;;0.30;;
23628;SDS011;11991;57.150;-2.134;2022-10-16T04:43:26;0.60;;;0.30;;
23628;SDS011;11991;57.150;-2.134;2022-10-16T04:45:54;0.25;;;0.25;;
23628;SDS011;11991;57.150;-2.134;2022-10-16T04:48:22;0.40;;;0.40;;
23628;SDS011;11991;57.150;-2.134;2022-10-16T04:50:49;1.00;;;0.30;;
23628;SDS011;11991;57.150;-2.134;2022-10-16T04:53:20;0.28;;;0.28;;
23628;SDS011;11991;57.150;-2.134;2022-10-16T04:55:47;0.20;;;0.20;;
23628;SDS011;11991;57.150;-2.134;2022-10-16T04:58:16;0.20;;;0.20;;
23628;SDS011;11991;57.150;-2.134;2022-10-16T05:00:44;0.30;;;0.30;;
23628;SDS011;11991;57.150;-2.134;2022-10-16T05:03:12;0.30;;;0.30;;
23628;SDS011;11991;57.150;-2.134;2022-10-16T05:05:43;0.28;;;0.28;;
23628;SDS011;11991;57.150;-2.134;2022-10-16T05:08:12;0.30;;;0.30;;
23628;SDS011;11991;57.150;-2.134;2022-10-16T05:10:41;0.20;;;0.20;;
23628;SDS011;11991;57.150;-2.134;2022-10-16T05:13:09;0.30;;;0.30;;
23628;SDS011;11991;57.150;-2.134;2022-10-16T05:15:37;0.30;;;0.30;;
23628;SDS011;11991;57.150;-2.134;2022-10-16T05:18:04;0.20;;;0.20;;
23628;SDS011;11991;57.150;-2.134;2022-10-16T05:20:31;0.22;;;0.22;;
23628;SDS011;11991;57.150;-2.134;2022-10-16T05:22:59;0.20;;;0.20;;
23628;SDS011;11991;57.150;-2.134;2022-10-16T05:25:26;0.20;;;0.20;;
23628;SDS011;11991;57.150;-2.134;2022-10-16T05:27:53;0.40;;;0.30;;
23628;SDS011;11991;57.150;-2.134;2022-10-16T05:30:20;0.30;;;0.30;;
23628;SDS011;11991;57.150;-2.134;2022-10-16T05:32:48;0.30;;;0.30;;
23628;SDS011;11991;57.150;-2.134;2022-10-16T05:35:16;0.30;;;0.30;;
23628;SDS011;11991;57.150;-2.134;2022-10-16T05:37:44;0.30;;;0.30;;
23628;SDS011;11991;57.150;-2.134;2022-10-16T05:40:12;0.47;;;0.30;;
23628;SDS011;11991;57.150;-2.134;2022-10-16T05:42:40;0.30;;;0.30;;
23628;SDS011;11991;57.150;-2.134;2022-10-16T05:45:09;0.20;;;0.20;;
23628;SDS011;11991;57.150;-2.134;2022-10-16T05:47:37;0.22;;;0.22;;
23628;SDS011;11991;57.150;-2.134;2022-10-16T05:50:04;0.38;;;0.30;;
23628;SDS011;11991;57.150;-2.134;2022-10-16T05:52:32;0.30;;;0.30;;
23628;SDS011;11991;57.150;-2.134;2022-10-16T05:54:59;0.30;;;0.30;;
23628;SDS011;11991;57.150;-2.134;2022-10-16T05:57:26;0.30;;;0.30;;
23628;SDS011;11991;57.150;-2.134;2022-10-16T05:59:54;0.30;;;0.30;;
23628;SDS011;11991;57.150;-2.134;2022-10-16T06:02:21;0.45;;;0.30;;
23628;SDS011;11991;57.150;-2.134;2022-10-16T06:04:49;0.28;;;0.28;;
23628;SDS011;11991;57.150;-2.134;2022-10-16T06:07:20;0.30;;;0.30;;
23628;SDS011;11991;57.150;-2.134;2022-10-16T06:09:49;0.30;;;0.30;;
23628;SDS011;11991;57.150;-2.134;2022-10-16T06:12:16;0.25;;;0.25;;
23628;SDS011;11991;57.150;-2.134;2022-10-16T06:14:44;0.30;;;0.30;;
23628;SDS011;11991;57.150;-2.134;2022-10-16T06:17:13;0.22;;;0.22;;
23628;SDS011;11991;57.150;-2.134;2022-10-16T06:19:41;0.40;;;0.40;;
23628;SDS011;11991;57.150;-2.134;2022-10-16T06:22:08;0.63;;;0.32;;
23628;SDS011;11991;57.150;-2.134;2022-10-16T06:24:35;0.40;;;0.40;;
23628;SDS011;11991;57.150;-2.134;2022-10-16T06:27:03;0.30;;;0.30;;
23628;SDS011;11991;57.150;-2.134;2022-10-16T06:29:31;0.20;;;0.20;;
23628;SDS011;11991;57.150;-2.134;2022-10-16T06:31:58;0.65;;;0.38;;
23628;SDS011;11991;57.150;-2.134;2022-10-16T06:34:26;0.55;;;0.55;;
23628;SDS011;11991;57.150;-2.134;2022-10-16T06:36:53;0.30;;;0.30;;
23628;SDS011;11991;57.150;-2.134;2022-10-16T06:39:20;0.28;;;0.28;;
23628;SDS011;11991;57.150;-2.134;2022-10-16T06:41:48;0.30;;;0.30;;
23628;SDS011;11991;57.150;-2.134;2022-10-16T06:44:15;0.32;;;0.32;;
23628;SDS011;11991;57.150;-2.134;2022-10-16T06:46:42;0.47;;;0.30;;
23628;SDS011;11991;57.150;-2.134;2022-10-16T06:49:10;0.30;;;0.30;;
23628;SDS011;11991;57.150;-2.134;2022-10-16T06:51:37;0.30;;;0.30;;
23628;SDS011;11991;57.150;-2.134;2022-10-16T06:54:09;0.20;;;0.20;;
23628;SDS011;11991;57.150;-2.134;2022-10-16T06:56:36;0.30;;;0.30;;
23628;SDS011;11991;57.150;-2.134;2022-10-16T06:59:04;0.30;;;0.30;;
23628;SDS011;11991;57.150;-2.134;2022-10-16T07:01:31;0.40;;;0.40;;
23628;SDS011;11991;57.150;-2.134;2022-10-16T07:03:59;0.40;;;0.40;;
23628;SDS011;11991;57.150;-2.134;2022-10-16T07:06:30;0.30;;;0.30;;
23628;SDS011;11991;57.150;-2.134;2022-10-16T07:09:01;0.38;;;0.30;;
23628;SDS011;11991;57.150;-2.134;2022-10-16T07:11:31;0.30;;;0.30;;
23628;SDS011;11991;57.150;-2.134;2022-10-16T07:13:58;0.20;;;0.20;;
23628;SDS011;11991;57.150;-2.134;2022-10-16T07:16:27;0.30;;;0.30;;
23628;SDS011;11991;57.150;-2.134;2022-10-16T07:18:59;0.50;;;0.40;;
23628;SDS011;11991;57.150;-2.134;2022-10-16T07:21:32;0.30;;;0.30;;
23628;SDS011;11991;57.150;-2.134;2022-10-16T07:24:04;0.30;;;0.30;;
23628;SDS011;11991;57.150;-2.134;2022-10-16T07:26:35;0.30;;;0.30;;
23628;SDS011;11991;57.150;-2.134;2022-10-16T07:29:03;0.30;;;0.30;;
23628;SDS011;11991;57.150;-2.134;2022-10-16T07:31:31;0.30;;;0.30;;
23628;SDS011;11991;57.150;-2.134;2022-10-16T07:33:59;1.00;;;0.40;;
23628;SDS011;11991;57.150;-2.134;2022-10-16T07:36:26;0.30;;;0.30;;
23628;SDS011;11991;57.150;-2.134;2022-10-16T07:38:54;0.30;;;0.30;;
23628;SDS011;11991;57.150;-2.134;2022-10-16T07:41:25;0.40;;;0.40;;
23628;SDS011;11991;57.150;-2.134;2022-10-16T07:43:53;0.85;;;0.30;;
23628;SDS011;11991;57.150;-2.134;2022-10-16T07:46:21;0.40;;;0.40;;
23628;SDS011;11991;57.150;-2.134;2022-10-16T07:48:49;0.30;;;0.30;;
23628;SDS011;11991;57.150;-2.134;2022-10-16T07:51:18;0.40;;;0.40;;
23628;SDS011;11991;57.150;-2.134;2022-10-16T07:53:46;0.30;;;0.30;;
23628;SDS011;11991;57.150;-2.134;2022-10-16T07:56:14;0.25;;;0.25;;
23628;SDS011;11991;57.150;-2.134;2022-10-16T07:58:43;0.20;;;0.20;;
23628;SDS011;11991;57.150;-2.134;2022-10-16T08:01:13;0.30;;;0.30;;
23628;SDS011;11991;57.150;-2.134;2022-10-16T08:03:43;0.30;;;0.30;;
23628;SDS011;11991;57.150;-2.134;2022-10-16T08:06:11;0.30;;;0.30;;
23628;SDS011;11991;57.150;-2.134;2022-10-16T08:08:38;0.30;;;0.30;;
23628;SDS011;11991;57.150;-2.134;2022-10-16T08:11:06;0.70;;;0.30;;
23628;SDS011;11991;57.150;-2.134;2022-10-16T08:13:33;0.30;;;0.30;;
23628;SDS011;11991;57.150;-2.134;2022-10-16T08:16:01;0.38;;;0.20;;
23628;SDS011;11991;57.150;-2.134;2022-10-16T08:18:30;0.30;;;0.30;;
23628;SDS011;11991;57.150;-2.134;2022-10-16T08:20:58;0.30;;;0.30;;
23628;SDS011;11991;57.150;-2.134;2022-10-16T08:23:27;0.40;;;0.40;;
23628;SDS011;11991;57.150;-2.134;2022-10-16T08:25:55;0.45;;;0.45;;
23628;SDS011;11991;57.150;-2.134;2022-10-16T08:28:23;0.30;;;0.30;;
23628;SDS011;11991;57.150;-2.134;2022-10-16T08:30:50;0.30;;;0.30;;
23628;SDS011;11991;57.150;-2.134;2022-10-16T08:33:17;0.20;;;0.20;;
23628;SDS011;11991;57.150;-2.134;2022-10-16T08:35:51;0.30;;;0.30;;
23628;SDS011;11991;57.150;-2.134;2022-10-16T08:38:20;0.75;;;0.30;;
23628;SDS011;11991;57.150;-2.134;2022-10-16T08:40:47;0.43;;;0.30;;
23628;SDS011;11991;57.150;-2.134;2022-10-16T08:48:27;0.30;;;0.30;;
23628;SDS011;11991;57.150;-2.134;2022-10-16T08:51:11;0.35;;;0.30;;
23628;SDS011;11991;57.150;-2.134;2022-10-16T08:56:55;0.20;;;0.20;;
23628;SDS011;11991;57.150;-2.134;2022-10-16T08:59:23;0.30;;;0.30;;
23628;SDS011;11991;57.150;-2.134;2022-10-16T09:01:50;0.43;;;0.30;;
23628;SDS011;11991;57.150;-2.134;2022-10-16T09:07:32;0.25;;;0.25;;
23628;SDS011;11991;57.150;-2.134;2022-10-16T09:22:47;0.20;;;0.20;;
23628;SDS011;11991;57.150;-2.134;2022-10-16T09:25:15;0.30;;;0.30;;
23628;SDS011;11991;57.150;-2.134;2022-10-16T09:27:45;0.45;;;0.40;;
23628;SDS011;11991;57.150;-2.134;2022-10-16T09:30:19;0.30;;;0.30;;
23628;SDS011;11991;57.150;-2.134;2022-10-16T09:32:49;0.30;;;0.30;;
23628;SDS011;11991;57.150;-2.134;2022-10-16T09:35:20;0.30;;;0.30;;
23628;SDS011;11991;57.150;-2.134;2022-10-16T09:37:49;1.02;;;0.40;;
23628;SDS011;11991;57.150;-2.134;2022-10-16T09:40:26;0.30;;;0.30;;
23628;SDS011;11991;57.150;-2.134;2022-10-16T09:43:10;0.30;;;0.30;;
23628;SDS011;11991;57.150;-2.134;2022-10-16T09:45:43;0.20;;;0.20;;
23628;SDS011;11991;57.150;-2.134;2022-10-16T09:48:21;0.20;;;0.20;;
23628;SDS011;11991;57.150;-2.134;2022-10-16T09:51:01;0.30;;;0.30;;
23628;SDS011;11991;57.150;-2.134;2022-10-16T09:53:40;0.40;;;0.40;;
23628;SDS011;11991;57.150;-2.134;2022-10-16T09:56:20;0.30;;;0.30;;
23628;SDS011;11991;57.150;-2.134;2022-10-16T09:59:16;0.30;;;0.30;;
23628;SDS011;11991;57.150;-2.134;2022-10-16T10:01:53;0.30;;;0.30;;
23628;SDS011;11991;57.150;-2.134;2022-10-16T10:04:23;0.30;;;0.30;;
23628;SDS011;11991;57.150;-2.134;2022-10-16T10:06:53;0.30;;;0.30;;
23628;SDS011;11991;57.150;-2.134;2022-10-16T10:09:25;0.30;;;0.30;;
23628;SDS011;11991;57.150;-2.134;2022-10-16T10:12:04;0.20;;;0.20;;
23628;SDS011;11991;57.150;-2.134;2022-10-16T10:17:17;0.30;;;0.30;;
23628;SDS011;11991;57.150;-2.134;2022-10-16T10:22:23;0.40;;;0.40;;
23628;SDS011;11991;57.150;-2.134;2022-10-16T10:31:08;0.20;;;0.20;;
23628;SDS011;11991;57.150;-2.134;2022-10-16T10:33:18;0.30;;;0.30;;
23628;SDS011;11991;57.150;-2.134;2022-10-16T10:42:00;0.30;;;0.30;;
23628;SDS011;11991;57.150;-2.134;2022-10-16T10:44:42;0.30;;;0.30;;
23628;SDS011;11991;57.150;-2.134;2022-10-16T10:55:46;0.75;;;0.22;;
23628;SDS011;11991;57.150;-2.134;2022-10-16T10:58:40;0.30;;;0.30;;
23628;SDS011;11991;57.150;-2.134;2022-10-16T11:02:28;0.20;;;0.20;;
23628;SDS011;11991;57.150;-2.134;2022-10-16T11:07:25;0.20;;;0.20;;
23628;SDS011;11991;57.150;-2.134;2022-10-16T11:10:02;0.35;;;0.35;;
23628;SDS011;11991;57.150;-2.134;2022-10-16T11:12:38;0.30;;;0.30;;
23628;SDS011;11991;57.150;-2.134;2022-10-16T11:15:17;0.35;;;0.30;;
23628;SDS011;11991;57.150;-2.134;2022-10-16T11:20:22;0.88;;;0.30;;
23628;SDS011;11991;57.150;-2.134;2022-10-16T11:22:56;0.30;;;0.30;;
23628;SDS011;11991;57.150;-2.134;2022-10-16T11:25:32;0.30;;;0.30;;
23628;SDS011;11991;57.150;-2.134;2022-10-16T11:28:14;0.30;;;0.30;;
23628;SDS011;11991;57.150;-2.134;2022-10-16T11:30:59;0.50;;;0.40;;
23628;SDS011;11991;57.150;-2.134;2022-10-16T11:38:58;0.20;;;0.20;;
23628;SDS011;11991;57.150;-2.134;2022-10-16T11:47:07;0.40;;;0.40;;
23628;SDS011;11991;57.150;-2.134;2022-10-16T11:50:04;0.30;;;0.30;;
23628;SDS011;11991;57.150;-2.134;2022-10-16T11:55:43;0.30;;;0.30;;
23628;SDS011;11991;57.150;-2.134;2022-10-16T12:01:38;0.40;;;0.40;;
23628;SDS011;11991;57.150;-2.134;2022-10-16T12:04:30;0.52;;;0.30;;
23628;SDS011;11991;57.150;-2.134;2022-10-16T12:09:34;0.52;;;0.35;;
23628;SDS011;11991;57.150;-2.134;2022-10-16T12:12:22;0.38;;;0.30;;
23628;SDS011;11991;57.150;-2.134;2022-10-16T12:15:25;0.22;;;0.22;;
23628;SDS011;11991;57.150;-2.134;2022-10-16T12:18:22;0.40;;;0.40;;
23628;SDS011;11991;57.150;-2.134;2022-10-16T12:20:56;0.30;;;0.30;;
23628;SDS011;11991;57.150;-2.134;2022-10-16T12:23:27;0.38;;;0.30;;
23628;SDS011;11991;57.150;-2.134;2022-10-16T12:25:55;0.30;;;0.30;;
23628;SDS011;11991;57.150;-2.134;2022-10-16T12:28:27;0.85;;;0.30;;
23628;SDS011;11991;57.150;-2.134;2022-10-16T12:31:04;0.22;;;0.22;;
23628;SDS011;11991;57.150;-2.134;2022-10-16T12:33:42;0.30;;;0.30;;
23628;SDS011;11991;57.150;-2.134;2022-10-16T12:36:33;0.30;;;0.30;;
23628;SDS011;11991;57.150;-2.134;2022-10-16T12:39:01;0.32;;;0.30;;
23628;SDS011;11991;57.150;-2.134;2022-10-16T12:41:31;0.52;;;0.40;;
23628;SDS011;11991;57.150;-2.134;2022-10-16T12:44:00;0.30;;;0.30;;
23628;SDS011;11991;57.150;-2.134;2022-10-16T12:51:40;0.30;;;0.30;;
23628;SDS011;11991;57.150;-2.134;2022-10-16T13:10:41;0.88;;;0.80;;
23628;SDS011;11991;57.150;-2.134;2022-10-16T13:13:53;0.40;;;0.40;;
23628;SDS011;11991;57.150;-2.134;2022-10-16T13:22:03;0.40;;;0.40;;
23628;SDS011;11991;57.150;-2.134;2022-10-16T13:27:54;0.40;;;0.40;;
23628;SDS011;11991;57.150;-2.134;2022-10-16T13:30:26;1.02;;;0.35;;
23628;SDS011;11991;57.150;-2.134;2022-10-16T13:32:59;2.83;;;0.60;;
23628;SDS011;11991;57.150;-2.134;2022-10-16T13:35:28;0.20;;;0.20;;
23628;SDS011;11991;57.150;-2.134;2022-10-16T13:38:04;3.10;;;1.15;;
23628;SDS011;11991;57.150;-2.134;2022-10-16T13:40:52;0.95;;;0.30;;
23628;SDS011;11991;57.150;-2.134;2022-10-16T13:46:14;0.57;;;0.30;;
23628;SDS011;11991;57.150;-2.134;2022-10-16T13:48:43;0.30;;;0.30;;
23628;SDS011;11991;57.150;-2.134;2022-10-16T13:53:38;1.08;;;0.30;;
23628;SDS011;11991;57.150;-2.134;2022-10-16T13:56:09;0.82;;;0.32;;
23628;SDS011;11991;57.150;-2.134;2022-10-16T13:58:41;0.20;;;0.20;;
23628;SDS011;11991;57.150;-2.134;2022-10-16T14:01:26;0.30;;;0.30;;
23628;SDS011;11991;57.150;-2.134;2022-10-16T14:04:06;0.85;;;0.47;;
23628;SDS011;11991;57.150;-2.134;2022-10-16T14:06:36;1.42;;;0.50;;
23628;SDS011;11991;57.150;-2.134;2022-10-16T14:09:08;1.30;;;0.55;;
23628;SDS011;11991;57.150;-2.134;2022-10-16T14:11:49;0.68;;;0.40;;
23628;SDS011;11991;57.150;-2.134;2022-10-16T14:14:18;0.70;;;0.40;;
23628;SDS011;11991;57.150;-2.134;2022-10-16T14:16:46;0.63;;;0.50;;
23628;SDS011;11991;57.150;-2.134;2022-10-16T14:19:35;0.70;;;0.70;;
23628;SDS011;11991;57.150;-2.134;2022-10-16T14:22:02;0.40;;;0.40;;
23628;SDS011;11991;57.150;-2.134;2022-10-16T14:24:48;0.40;;;0.40;;
23628;SDS011;11991;57.150;-2.134;2022-10-16T14:27:27;0.73;;;0.60;;
23628;SDS011;11991;57.150;-2.134;2022-10-16T14:30:19;0.65;;;0.40;;
23628;SDS011;11991;57.150;-2.134;2022-10-16T14:33:00;0.40;;;0.40;;
23628;SDS011;11991;57.150;-2.134;2022-10-16T14:35:36;0.80;;;0.50;;
23628;SDS011;11991;57.150;-2.134;2022-10-16T14:38:06;0.63;;;0.30;;
23628;SDS011;11991;57.150;-2.134;2022-10-16T14:40:48;0.32;;;0.32;;
23628;SDS011;11991;57.150;-2.134;2022-10-16T14:43:25;1.40;;;0.43;;
23628;SDS011;11991;57.150;-2.134;2022-10-16T14:46:04;0.90;;;0.85;;
23628;SDS011;11991;57.150;-2.134;2022-10-16T14:48:44;0.47;;;0.30;;
23628;SDS011;11991;57.150;-2.134;2022-10-16T14:51:17;0.47;;;0.35;;
23628;SDS011;11991;57.150;-2.134;2022-10-16T14:53:45;0.30;;;0.30;;
23628;SDS011;11991;57.150;-2.134;2022-10-16T14:56:17;0.20;;;0.20;;
23628;SDS011;11991;57.150;-2.134;2022-10-16T14:58:50;0.43;;;0.30;;
23628;SDS011;11991;57.150;-2.134;2022-10-16T15:01:19;0.35;;;0.30;;
23628;SDS011;11991;57.150;-2.134;2022-10-16T15:03:46;0.30;;;0.30;;
23628;SDS011;11991;57.150;-2.134;2022-10-16T15:06:14;0.43;;;0.30;;
23628;SDS011;11991;57.150;-2.134;2022-10-16T15:08:42;0.22;;;0.22;;
23628;SDS011;11991;57.150;-2.134;2022-10-16T15:11:13;0.30;;;0.30;;
23628;SDS011;11991;57.150;-2.134;2022-10-16T15:13:43;0.57;;;0.50;;
23628;SDS011;11991;57.150;-2.134;2022-10-16T15:16:11;0.65;;;0.50;;
23628;SDS011;11991;57.150;-2.134;2022-10-16T15:18:40;0.43;;;0.40;;
23628;SDS011;11991;57.150;-2.134;2022-10-16T15:21:08;0.60;;;0.50;;
23628;SDS011;11991;57.150;-2.134;2022-10-16T15:23:49;0.52;;;0.40;;
23628;SDS011;11991;57.150;-2.134;2022-10-16T15:26:17;0.73;;;0.40;;
23628;SDS011;11991;57.150;-2.134;2022-10-16T15:28:44;0.30;;;0.30;;
23628;SDS011;11991;57.150;-2.134;2022-10-16T15:31:12;1.15;;;0.57;;
23628;SDS011;11991;57.150;-2.134;2022-10-16T15:33:39;0.88;;;0.40;;
23628;SDS011;11991;57.150;-2.134;2022-10-16T15:36:06;0.50;;;0.50;;
23628;SDS011;11991;57.150;-2.134;2022-10-16T15:38:34;1.05;;;0.50;;
23628;SDS011;11991;57.150;-2.134;2022-10-16T15:41:02;1.05;;;0.65;;
23628;SDS011;11991;57.150;-2.134;2022-10-16T15:43:29;1.00;;;0.70;;
23628;SDS011;11991;57.150;-2.134;2022-10-16T15:46:01;1.52;;;0.68;;
23628;SDS011;11991;57.150;-2.134;2022-10-16T15:48:30;0.60;;;0.50;;
23628;SDS011;11991;57.150;-2.134;2022-10-16T15:50:59;1.35;;;0.77;;
23628;SDS011;11991;57.150;-2.134;2022-10-16T15:53:27;0.45;;;0.45;;
23628;SDS011;11991;57.150;-2.134;2022-10-16T15:55:54;0.60;;;0.60;;
23628;SDS011;11991;57.150;-2.134;2022-10-16T15:58:22;0.60;;;0.50;;
23628;SDS011;11991;57.150;-2.134;2022-10-16T16:00:58;0.55;;;0.40;;
23628;SDS011;11991;57.150;-2.134;2022-10-16T16:03:33;1.00;;;0.85;;
23628;SDS011;11991;57.150;-2.134;2022-10-16T16:06:05;1.58;;;1.00;;
23628;SDS011;11991;57.150;-2.134;2022-10-16T16:08:36;0.80;;;0.63;;
23628;SDS011;11991;57.150;-2.134;2022-10-16T16:11:05;1.60;;;0.90;;
23628;SDS011;11991;57.150;-2.134;2022-10-16T16:13:35;2.67;;;1.20;;
23628;SDS011;11991;57.150;-2.134;2022-10-16T16:16:09;1.77;;;1.20;;
23628;SDS011;11991;57.150;-2.134;2022-10-16T16:18:41;1.30;;;1.20;;
23628;SDS011;11991;57.150;-2.134;2022-10-16T16:21:10;1.10;;;1.00;;
23628;SDS011;11991;57.150;-2.134;2022-10-16T16:23:38;1.55;;;0.88;;
23628;SDS011;11991;57.150;-2.134;2022-10-16T16:26:13;1.05;;;0.93;;
23628;SDS011;11991;57.150;-2.134;2022-10-16T16:28:42;0.75;;;0.65;;
23628;SDS011;11991;57.150;-2.134;2022-10-16T16:34:30;0.68;;;0.52;;
23628;SDS011;11991;57.150;-2.134;2022-10-16T16:36:58;1.02;;;0.85;;
23628;SDS011;11991;57.150;-2.134;2022-10-16T16:39:25;0.75;;;0.57;;
23628;SDS011;11991;57.150;-2.134;2022-10-16T16:41:52;1.75;;;0.70;;
23628;SDS011;11991;57.150;-2.134;2022-10-16T16:44:23;1.40;;;1.00;;
23628;SDS011;11991;57.150;-2.134;2022-10-16T16:46:50;1.38;;;1.27;;
23628;SDS011;11991;57.150;-2.134;2022-10-16T16:49:17;2.13;;;1.30;;
23628;SDS011;11991;57.150;-2.134;2022-10-16T16:51:45;1.60;;;1.42;;
23628;SDS011;11991;57.150;-2.134;2022-10-16T16:54:12;1.45;;;1.30;;
23628;SDS011;11991;57.150;-2.134;2022-10-16T16:56:40;1.73;;;1.27;;
23628;SDS011;11991;57.150;-2.134;2022-10-16T16:59:12;1.85;;;1.33;;
23628;SDS011;11991;57.150;-2.134;2022-10-16T17:01:41;3.42;;;2.50;;
23628;SDS011;11991;57.150;-2.134;2022-10-16T17:04:09;3.22;;;2.40;;
23628;SDS011;11991;57.150;-2.134;2022-10-16T17:09:31;3.90;;;2.15;;
23628;SDS011;11991;57.150;-2.134;2022-10-16T17:11:59;2.50;;;1.77;;
23628;SDS011;11991;57.150;-2.134;2022-10-16T17:14:27;4.28;;;2.75;;
23628;SDS011;11991;57.150;-2.134;2022-10-16T17:16:54;4.47;;;3.00;;
23628;SDS011;11991;57.150;-2.134;2022-10-16T17:19:21;4.22;;;2.83;;
23628;SDS011;11991;57.150;-2.134;2022-10-16T17:21:49;4.07;;;2.65;;